Time;durP1;ratioP1;P1;durP2;ratioP2;P2;SDS_P1;SDS_P2;PMS_P1;PMS_P2;Temp;Humidity;BMP_temperature;BMP_pressure;BME280_temperature;BME280_humidity;BME280_pressure;Samples;Min_cycle;Max_cycle;Signal;HPM_P1;HPM_P2
2022/11/19 00:01:16;;;;;;;;;13.00;10.00;;;;;11.51;56.22;100343.69;5079971;27;45325;-40
2022/11/19 00:03:42;;;;;;;;;11.50;10.25;;;;;11.52;56.36;100353.28;5081542;27;45409;-40
2022/11/19 00:06:10;;;;;;;;;8.25;8.00;;;;;11.51;55.92;100348.94;5080738;28;45401;-40
2022/11/19 00:08:36;;;;;;;;;12.50;8.00;;;;;11.48;56.26;100354.31;5075928;27;46607;-40
2022/11/19 00:11:04;;;;;;;;;9.00;8.75;;;;;11.47;56.02;100350.81;5080049;28;61513;-40
2022/11/19 00:13:29;;;;;;;;;10.25;9.50;;;;;11.45;56.05;100357.88;5080556;27;45399;-40
2022/11/19 00:15:55;;;;;;;;;14.00;11.50;;;;;11.43;56.20;100356.25;5074767;27;45394;-40
2022/11/19 00:18:20;;;;;;;;;14.75;10.50;;;;;11.40;56.14;100363.31;5080988;27;71376;-40
2022/11/19 00:20:45;;;;;;;;;4.75;4.25;;;;;11.38;56.44;100354.66;5082486;27;45373;-40
2022/11/19 00:23:11;;;;;;;;;5.00;5.00;;;;;11.36;56.64;100353.81;5081271;27;65243;-40
2022/11/19 00:25:36;;;;;;;;;11.00;7.00;;;;;11.36;56.28;100351.19;5077086;27;59505;-40
2022/11/19 00:28:01;;;;;;;;;10.00;8.00;;;;;11.38;56.31;100348.53;5077740;27;63238;-41
2022/11/19 00:30:27;;;;;;;;;12.75;8.00;;;;;11.39;56.54;100343.25;5075170;28;66397;-40
2022/11/19 00:32:52;;;;;;;;;6.50;6.25;;;;;11.39;56.39;100350.25;5078612;27;59424;-41
2022/11/19 00:35:17;;;;;;;;;11.00;9.75;;;;;11.36;56.27;100340.72;5078824;27;45466;-40
2022/11/19 00:37:43;;;;;;;;;90.00;70.75;;;;;11.37;56.51;100358.16;5081447;27;45392;-39
2022/11/19 00:40:10;;;;;;;;;7.00;6.00;;;;;11.37;56.42;100350.31;5074455;27;57830;-39
2022/11/19 00:42:36;;;;;;;;;16.25;13.50;;;;;11.37;56.71;100354.69;5064777;27;45517;-39
2022/11/19 00:45:01;;;;;;;;;30.50;23.25;;;;;11.36;56.39;100356.44;5065495;28;45356;-40
2022/11/19 00:47:26;;;;;;;;;20.00;18.75;;;;;11.36;56.34;100358.22;5067890;28;70992;-39
2022/11/19 00:49:52;;;;;;;;;9.25;7.00;;;;;11.34;56.74;100354.81;5061369;28;72406;-39
2022/11/19 00:52:17;;;;;;;;;9.25;6.25;;;;;11.33;56.36;100355.69;5080449;27;55909;-39
2022/11/19 00:54:42;;;;;;;;;6.50;4.50;;;;;11.31;56.79;100358.38;5073134;27;53898;-40
2022/11/19 00:57:08;;;;;;;;;7.75;6.75;;;;;11.32;56.71;100352.22;5080842;27;45902;-39
2022/11/19 00:59:33;;;;;;;;;7.25;5.75;;;;;11.31;56.64;100352.28;5063072;28;75287;-39
2022/11/19 01:01:59;;;;;;;;;4.00;2.50;;;;;11.28;56.41;100352.38;5080736;27;45510;-39
2022/11/19 01:04:24;;;;;;;;;9.25;4.50;;;;;11.27;56.76;100354.16;5081242;28;45482;-39
2022/11/19 01:06:49;;;;;;;;;5.50;5.00;;;;;11.25;56.26;100353.38;5081007;27;50673;-39
2022/11/19 01:09:15;;;;;;;;;6.00;4.25;;;;;11.22;56.51;100361.34;5079943;28;69706;-39
2022/11/19 01:11:40;;;;;;;;;6.50;4.00;;;;;11.17;56.41;100352.78;5081315;27;52387;-42
2022/11/19 01:14:06;;;;;;;;;5.50;3.00;;;;;11.15;56.78;100359.84;5079941;28;66498;-39
2022/11/19 01:16:34;;;;;;;;;6.00;4.00;;;;;11.11;56.83;100358.25;5089440;27;47120;-39
2022/11/19 01:19:00;;;;;;;;;6.25;4.00;;;;;11.06;56.76;100355.78;5079948;27;45289;-39
2022/11/19 01:21:28;;;;;;;;;6.00;5.50;;;;;11.07;56.90;100362.75;5079573;27;45441;-39
2022/11/19 01:23:54;;;;;;;;;8.50;4.00;;;;;11.07;56.99;100365.34;5078507;28;45509;-39
2022/11/19 01:26:19;;;;;;;;;5.25;5.00;;;;;11.07;56.91;100369.75;5080833;27;49994;-39
2022/11/19 01:28:45;;;;;;;;;8.00;5.25;;;;;11.04;57.11;100370.69;5079139;27;63163;-39
2022/11/19 01:31:12;;;;;;;;;10.25;6.50;;;;;11.00;57.15;100372.56;5081772;27;45274;-39
2022/11/19 01:33:37;;;;;;;;;7.75;5.00;;;;;11.01;57.00;100373.41;5078972;27;45383;-40
2022/11/19 01:36:05;;;;;;;;;6.50;5.00;;;;;11.00;57.16;100390.91;5078096;27;67510;-39
2022/11/19 01:38:31;;;;;;;;;8.25;4.25;;;;;10.99;57.31;100386.56;5086241;27;45616;-39
2022/11/19 01:40:57;;;;;;;;;9.00;7.50;;;;;11.01;57.02;100391.75;5067397;27;63677;-40
2022/11/19 01:43:38;;;;;;;;;6.00;4.00;;;;;11.02;57.09;100388.22;5069108;28;45449;-39
2022/11/19 01:46:03;;;;;;;;;4.50;3.25;;;;;11.00;57.12;100392.66;5086973;27;46620;-39
2022/11/19 01:48:31;;;;;;;;;5.50;4.50;;;;;10.96;57.11;100386.69;5072154;28;73590;-40
2022/11/19 01:51:00;;;;;;;;;6.00;4.00;;;;;10.94;57.37;100387.63;5064618;28;45314;-40
2022/11/19 01:53:28;;;;;;;;;5.00;4.00;;;;;10.91;57.53;100387.75;5083420;27;45278;-40
2022/11/19 01:55:55;;;;;;;;;4.00;4.00;;;;;10.89;57.27;100390.41;5080077;27;45348;-39
2022/11/19 01:58:23;;;;;;;;;11.75;6.00;;;;;10.86;57.14;100387.03;5078637;27;46189;-40
2022/11/19 02:00:48;;;;;;;;;6.25;3.00;;;;;10.81;57.35;100384.56;5092533;27;45487;-39
2022/11/19 02:03:14;;;;;;;;;5.75;3.50;;;;;10.80;57.53;100385.47;5077843;27;72051;-39
2022/11/19 02:05:41;;;;;;;;;6.25;4.00;;;;;10.79;57.31;100382.00;5086585;27;46230;-39
2022/11/19 02:08:08;;;;;;;;;5.00;4.00;;;;;10.77;57.69;100386.44;5079618;28;45169;-40
2022/11/19 02:11:06;;;;;;;;;8.75;4.25;;;;;10.75;57.45;100382.19;5080400;27;45324;-39
2022/11/19 02:13:39;;;;;;;;;3.50;3.00;;;;;10.69;57.51;100377.13;5076272;28;45314;-40
2022/11/19 02:16:20;;;;;;;;;6.75;5.75;;;;;10.75;57.81;100384.78;5079151;27;45318;-39
2022/11/19 02:18:56;;;;;;;;;4.00;3.25;;;;;10.74;57.76;100390.91;5071828;27;45781;-40
2022/11/19 02:22:06;;;;;;;;;5.00;5.00;;;;;10.76;57.80;100386.47;5072899;28;45394;-40
2022/11/19 02:25:10;;;;;;;;;5.00;5.00;;;;;10.74;57.57;100381.31;5035356;28;45535;-40
2022/11/19 02:28:14;;;;;;;;;6.50;5.00;;;;;10.75;57.98;100382.19;5015372;28;45332;-40
2022/11/19 02:30:43;;;;;;;;;5.50;5.00;;;;;10.73;57.67;100384.84;5051384;27;45294;-40
2022/11/19 02:33:18;;;;;;;;;4.00;4.00;;;;;10.73;57.55;100382.22;5077238;27;45324;-41
2022/11/19 02:36:11;;;;;;;;;4.50;3.75;;;;;10.75;57.69;100383.03;5084743;27;46034;-39
2022/11/19 02:38:41;;;;;;;;;6.25;3.25;;;;;10.75;57.87;100387.41;5073300;28;49214;-40
2022/11/19 02:41:32;;;;;;;;;7.75;4.25;;;;;10.72;57.87;100385.72;5063653;28;45780;-40
2022/11/19 02:46:52;;;;;;;;;5.50;3.00;;;;;10.71;57.93;100388.41;5078478;28;45324;-40
2022/11/19 02:49:20;;;;;;;;;6.75;4.00;;;;;10.73;57.91;100390.06;5077711;28;45443;-39
2022/11/19 02:51:47;;;;;;;;;6.25;5.00;;;;;10.73;58.11;100387.47;5078570;27;45193;-40
2022/11/19 02:54:15;;;;;;;;;5.75;3.25;;;;;10.72;57.62;100388.34;5078764;27;45219;-39
2022/11/19 02:56:50;;;;;;;;;7.00;5.50;;;;;10.72;58.24;100384.88;5088502;27;45524;-40
2022/11/19 03:04:49;;;;;;;;;7.50;5.00;;;;;10.74;57.99;100386.53;5077795;28;45362;-40
2022/11/19 03:07:18;;;;;;;;;4.25;4.00;;;;;10.75;58.17;100390.03;5076533;27;58166;-40
2022/11/19 03:09:48;;;;;;;;;7.25;3.75;;;;;10.74;58.15;100394.38;5079207;27;59200;-40
2022/11/19 03:12:46;;;;;;;;;10.00;6.00;;;;;10.77;58.26;100390.81;5071884;28;45808;-40
2022/11/19 03:18:32;;;;;;;;;5.75;5.75;;;;;10.77;57.87;100385.59;5076042;27;45409;-40
2022/11/19 03:21:07;;;;;;;;;6.00;4.75;;;;;10.77;58.21;100388.22;5076174;28;45435;-40
2022/11/19 03:23:36;;;;;;;;;7.25;5.00;;;;;10.75;58.41;100388.25;5079227;27;45841;-40
2022/11/19 03:26:16;;;;;;;;;8.75;4.00;;;;;10.74;58.08;100402.22;5076991;27;45277;-38
2022/11/19 03:28:43;;;;;;;;;6.50;5.50;;;;;10.74;58.25;100402.22;5073817;27;45315;-40
2022/11/19 03:31:09;;;;;;;;;7.50;5.00;;;;;10.76;58.43;100402.19;5060105;28;63030;-40
2022/11/19 03:33:43;;;;;;;;;6.00;5.00;;;;;10.75;58.29;100403.97;5077265;28;57827;-40
2022/11/19 03:36:17;;;;;;;;;7.50;4.75;;;;;10.75;58.30;100403.13;5078054;27;45574;-40
2022/11/19 03:38:46;;;;;;;;;8.25;5.25;;;;;10.74;58.42;100410.09;5071852;28;45605;-41
2022/11/19 03:41:14;;;;;;;;;6.25;4.00;;;;;10.74;58.61;100407.47;5076291;27;46295;-40
2022/11/19 03:43:42;;;;;;;;;4.50;3.00;;;;;10.75;58.41;100410.97;5078041;27;45770;-40
2022/11/19 03:46:12;;;;;;;;;4.25;4.25;;;;;10.74;58.21;100409.25;5056153;28;45371;-40
2022/11/19 03:48:39;;;;;;;;;4.50;4.50;;;;;10.75;58.22;100410.97;5073305;28;45520;-40
2022/11/19 03:51:14;;;;;;;;;7.50;5.75;;;;;10.73;58.11;100408.41;5074061;28;45477;-38
2022/11/19 03:53:39;;;;;;;;;11.00;5.75;;;;;10.75;58.39;100417.03;5078068;28;45861;-38
2022/11/19 03:56:09;;;;;;;;;6.00;4.25;;;;;10.76;58.22;100408.28;5073322;28;63900;-37
2022/11/19 03:58:44;;;;;;;;;6.50;5.00;;;;;10.75;58.52;100413.59;5111341;27;45637;-38
2022/11/19 04:01:10;;;;;;;;;7.00;4.25;;;;;10.75;58.48;100416.19;5080301;27;47404;-38
2022/11/19 04:03:35;;;;;;;;;6.00;4.00;;;;;10.75;58.44;100414.44;5081481;27;45902;-38
2022/11/19 04:06:02;;;;;;;;;5.25;5.00;;;;;10.71;58.46;100410.22;5077885;28;68301;-38
2022/11/19 04:08:27;;;;;;;;;6.00;3.50;;;;;10.77;58.40;100417.84;5082235;27;45434;-38
2022/11/19 04:10:52;;;;;;;;;9.25;5.75;;;;;10.78;58.63;100418.69;5080531;27;46170;-38
2022/11/19 04:13:18;;;;;;;;;5.50;3.50;;;;;10.80;58.26;100416.88;5080211;27;58144;-40
2022/11/19 04:15:43;;;;;;;;;6.25;4.00;;;;;10.77;58.64;100417.00;5073442;28;48757;-41
2022/11/19 04:18:08;;;;;;;;;5.75;5.00;;;;;10.78;58.46;100411.72;5079187;27;66112;-40
2022/11/19 04:20:34;;;;;;;;;13.75;7.25;;;;;10.79;58.45;100412.56;5081365;28;54260;-40
2022/11/19 04:22:59;;;;;;;;;5.00;5.00;;;;;10.81;58.69;100422.06;5079532;27;49593;-40
2022/11/19 04:25:24;;;;;;;;;6.50;5.00;;;;;10.85;58.47;100427.22;5081519;27;55174;-40
2022/11/19 04:27:50;;;;;;;;;5.25;4.00;;;;;10.86;58.60;100426.31;5080281;27;45481;-40
2022/11/19 04:30:15;;;;;;;;;8.25;5.00;;;;;10.82;58.37;100429.03;5081360;28;46325;-38
2022/11/19 04:32:41;;;;;;;;;4.50;3.25;;;;;10.81;58.74;100432.53;5081846;27;45484;-40
2022/11/19 04:35:07;;;;;;;;;6.50;5.00;;;;;10.83;58.72;100435.94;5082272;27;45472;-40
2022/11/19 04:37:32;;;;;;;;;8.75;6.00;;;;;10.84;58.53;100444.69;5080306;28;45379;-40
2022/11/19 04:39:58;;;;;;;;;7.50;6.00;;;;;10.85;58.43;100445.53;5076593;27;46442;-40
2022/11/19 04:42:23;;;;;;;;;6.00;3.00;;;;;10.86;58.57;100453.34;5062082;27;69906;-41
2022/11/19 04:44:48;;;;;;;;;5.25;4.00;;;;;10.90;58.75;100461.94;5087178;27;64786;-40
2022/11/19 04:47:14;;;;;;;;;6.50;4.00;;;;;10.90;58.69;100457.56;5079116;27;62730;-40
2022/11/19 04:49:39;;;;;;;;;4.50;4.00;;;;;10.90;58.52;100452.31;5081356;27;45287;-40
2022/11/19 04:52:04;;;;;;;;;7.50;4.00;;;;;10.90;58.69;100452.31;5081168;27;45425;-40
2022/11/19 04:54:30;;;;;;;;;6.25;5.50;;;;;10.90;58.70;100443.63;5081016;28;60100;-40
2022/11/19 04:56:55;;;;;;;;;5.75;4.00;;;;;10.87;58.67;100444.59;5076635;27;45535;-40
2022/11/19 04:59:20;;;;;;;;;6.50;4.50;;;;;10.85;58.78;100458.63;5080705;27;46247;-40
2022/11/19 05:01:46;;;;;;;;;6.00;4.25;;;;;10.83;58.70;100456.03;5080277;28;47071;-38
2022/11/19 05:04:11;;;;;;;;;6.50;5.25;;;;;10.86;58.90;100461.19;5081475;27;45318;-40
2022/11/19 05:06:37;;;;;;;;;5.00;3.00;;;;;10.89;58.78;100457.59;5080391;28;45288;-38
2022/11/19 05:09:02;;;;;;;;;9.50;5.50;;;;;10.89;58.64;100458.47;5080981;27;47265;-38
2022/11/19 05:11:27;;;;;;;;;5.00;4.75;;;;;10.90;58.69;100459.31;5080522;28;55142;-39
2022/11/19 05:13:53;;;;;;;;;6.50;4.50;;;;;10.89;58.85;100465.47;5077592;27;45409;-40
2022/11/19 05:16:18;;;;;;;;;7.00;5.00;;;;;10.86;58.65;100463.81;5072507;28;73080;-38
2022/11/19 05:18:44;;;;;;;;;5.00;3.00;;;;;10.85;58.69;100458.63;5078098;28;69012;-39
2022/11/19 05:21:09;;;;;;;;;6.50;4.75;;;;;10.81;58.84;100458.72;5079813;28;45452;-39
2022/11/19 05:23:34;;;;;;;;;5.50;5.00;;;;;10.78;58.70;100458.84;5073474;27;67914;-38
2022/11/19 05:26:00;;;;;;;;;7.00;5.00;;;;;10.78;58.94;100461.44;5079357;27;65869;-39
2022/11/19 05:28:25;;;;;;;;;11.00;5.50;;;;;10.78;59.11;100457.94;5078043;27;76212;-39
2022/11/19 05:30:54;;;;;;;;;5.00;3.75;;;;;10.79;59.29;100462.28;5068196;27;45462;-39
2022/11/19 05:33:19;;;;;;;;;5.25;4.00;;;;;10.78;58.98;100458.84;5078219;28;45514;-39
2022/11/19 05:35:45;;;;;;;;;6.00;5.75;;;;;10.79;59.20;100464.91;5078960;28;45612;-39
2022/11/19 05:38:10;;;;;;;;;5.50;3.75;;;;;10.80;58.91;100470.09;5076222;27;73697;-38
2022/11/19 05:40:35;;;;;;;;;10.00;4.25;;;;;10.80;58.84;100456.13;5069078;28;67703;-39
2022/11/19 05:43:07;;;;;;;;;8.25;6.25;;;;;10.80;59.12;100454.41;5068915;27;46442;-39
2022/11/19 05:45:32;;;;;;;;;15.25;5.00;;;;;10.80;58.96;100464.00;5078794;27;45477;-39
2022/11/19 05:47:58;;;;;;;;;7.25;5.75;;;;;10.80;58.94;100458.75;5075470;27;45412;-39
2022/11/19 05:50:23;;;;;;;;;6.75;5.50;;;;;10.81;58.92;100463.09;5072903;28;45307;-39
2022/11/19 05:52:49;;;;;;;;;5.25;5.00;;;;;10.80;59.13;100457.03;5079120;27;45603;-39
2022/11/19 05:55:15;;;;;;;;;4.50;4.25;;;;;10.79;59.11;100455.28;5072040;28;45408;-39
2022/11/19 05:57:41;;;;;;;;;9.00;7.00;;;;;10.80;59.00;100459.63;5081465;27;47191;-39
2022/11/19 06:00:07;;;;;;;;;7.25;6.50;;;;;10.82;59.17;100465.66;5073242;28;45611;-39
2022/11/19 06:02:32;;;;;;;;;6.50;4.00;;;;;10.82;59.09;100462.22;5076783;28;45314;-40
2022/11/19 06:04:58;;;;;;;;;6.25;5.00;;;;;10.78;59.09;100463.19;5074738;27;61963;-39
2022/11/19 06:07:23;;;;;;;;;9.25;3.00;;;;;10.78;59.18;100463.19;5051515;28;45952;-39
2022/11/19 06:09:48;;;;;;;;;6.00;6.00;;;;;10.75;59.19;100456.31;5075669;27;60279;-39
2022/11/19 06:12:13;;;;;;;;;6.75;5.75;;;;;10.74;59.01;100458.97;5076907;27;50510;-39
2022/11/19 06:14:40;;;;;;;;;8.00;6.00;;;;;10.74;59.37;100462.44;5083258;27;64160;-40
2022/11/19 06:17:05;;;;;;;;;9.75;7.00;;;;;10.73;59.11;100468.59;5076763;27;46099;-40
2022/11/19 06:19:30;;;;;;;;;6.25;6.00;;;;;10.75;59.28;100463.31;5073861;28;45456;-40
2022/11/19 06:21:56;;;;;;;;;5.50;5.50;;;;;10.75;59.29;100464.16;5066361;27;55263;-40
2022/11/19 06:24:21;;;;;;;;;7.25;5.00;;;;;10.76;59.35;100468.47;5076899;27;45402;-39
2022/11/19 06:26:46;;;;;;;;;6.50;6.00;;;;;10.76;59.27;100467.63;5078171;27;46069;-40
2022/11/19 06:29:13;;;;;;;;;8.00;7.00;;;;;10.77;59.17;100472.81;5076023;28;45271;-40
2022/11/19 06:31:38;;;;;;;;;7.25;4.75;;;;;10.79;59.35;100473.63;5068642;28;45485;-40
2022/11/19 06:34:04;;;;;;;;;8.75;5.00;;;;;10.78;59.58;100473.66;5073331;28;67071;-39
2022/11/19 06:36:29;;;;;;;;;8.25;6.00;;;;;10.82;59.14;100485.78;5068236;27;45333;-40
2022/11/19 06:38:54;;;;;;;;;0.00;0.00;;;;;10.83;59.39;100483.06;5066996;28;45635;-39
2022/11/19 06:41:20;;;;;;;;;7.50;5.25;;;;;10.86;59.47;100491.75;5069952;27;58313;-40
2022/11/19 06:43:45;;;;;;;;;6.75;5.75;;;;;10.86;59.54;100486.53;5079404;28;45450;-40
2022/11/19 06:46:11;;;;;;;;;10.50;6.00;;;;;10.90;59.46;100496.81;5081040;27;64564;-40
2022/11/19 06:48:37;;;;;;;;;6.00;5.00;;;;;10.90;59.57;100496.81;5071513;28;45398;-40
2022/11/19 06:51:03;;;;;;;;;7.00;5.00;;;;;10.90;59.49;100509.91;5073877;27;45390;-39
2022/11/19 06:53:29;;;;;;;;;8.00;6.50;;;;;10.93;59.54;100508.97;5075616;28;45267;-40
2022/11/19 06:55:56;;;;;;;;;8.00;7.25;;;;;10.92;59.38;100513.34;5066215;28;45331;-40
2022/11/19 06:58:21;;;;;;;;;10.00;6.00;;;;;10.93;59.45;100516.84;5076197;28;45415;-40
2022/11/19 07:00:47;;;;;;;;;7.75;6.00;;;;;10.94;59.42;100508.94;5088231;27;60663;-40
2022/11/19 07:03:12;;;;;;;;;8.00;7.50;;;;;10.95;59.73;100520.25;5076758;28;45342;-40
2022/11/19 07:05:37;;;;;;;;;8.00;5.00;;;;;10.95;59.47;100521.09;5073738;27;69770;-40
2022/11/19 07:08:03;;;;;;;;;12.00;7.00;;;;;10.97;59.50;100523.69;5078207;27;69405;-40
2022/11/19 07:10:28;;;;;;;;;7.00;5.00;;;;;10.97;59.90;100518.44;5092007;27;45397;-40
2022/11/19 07:12:54;;;;;;;;;7.00;6.00;;;;;11.00;59.55;100524.44;5071983;28;45468;-40
2022/11/19 07:15:19;;;;;;;;;9.25;5.50;;;;;11.01;59.63;100534.00;5073379;28;53478;-40
2022/11/19 07:17:44;;;;;;;;;7.00;5.50;;;;;11.04;59.46;100542.66;5070572;28;68012;-40
2022/11/19 07:20:10;;;;;;;;;5.75;5.25;;;;;11.04;59.60;100537.44;5086092;27;46767;-40
2022/11/19 07:22:35;;;;;;;;;7.75;5.25;;;;;11.04;59.83;100540.91;5075477;28;45306;-40
2022/11/19 07:25:01;;;;;;;;;6.00;5.25;;;;;11.05;59.88;100544.38;5082769;27;71751;-40
2022/11/19 07:27:26;;;;;;;;;13.00;7.50;;;;;11.07;59.70;100551.28;5074625;27;70001;-40
2022/11/19 07:29:51;;;;;;;;;7.00;5.50;;;;;11.08;59.68;100550.38;5064645;28;45585;-40
2022/11/19 07:32:17;;;;;;;;;8.00;6.50;;;;;11.10;59.96;100551.19;5075347;28;57304;-40
2022/11/19 07:34:42;;;;;;;;;9.75;9.00;;;;;11.09;59.81;100556.47;5076078;27;63752;-41
2022/11/19 07:37:07;;;;;;;;;9.25;7.50;;;;;11.07;59.88;100551.28;5080435;27;68947;-40
2022/11/19 07:39:33;;;;;;;;;9.50;6.75;;;;;11.08;59.64;100554.75;5074601;27;54416;-40
2022/11/19 07:44:42;;;;;;;;;7.00;6.50;;;;;11.11;59.91;100563.38;5075962;27;45740;-44
2022/11/19 07:47:08;;;;;;;;;6.75;5.50;;;;;11.12;59.68;100567.72;5072090;27;49647;-41
2022/11/19 07:49:33;;;;;;;;;8.00;7.50;;;;;11.13;59.96;100573.78;5079158;27;45468;-41
2022/11/19 07:51:58;;;;;;;;;9.75;7.00;;;;;11.12;59.55;100572.06;5080894;27;72058;-41
2022/11/19 07:54:24;;;;;;;;;7.50;7.00;;;;;11.11;59.55;100575.63;5077811;27;45324;-41
2022/11/19 07:56:49;;;;;;;;;9.25;7.00;;;;;11.11;59.60;100581.69;5076443;28;62899;-41
2022/11/19 07:59:15;;;;;;;;;8.50;7.25;;;;;11.12;59.60;100582.53;5071563;27;61469;-40
2022/11/19 08:01:41;;;;;;;;;10.25;7.00;;;;;11.12;59.71;100585.16;5080525;28;45648;-40
2022/11/19 08:04:06;;;;;;;;;9.00;7.00;;;;;11.14;59.49;100588.63;5077781;27;46293;-40
2022/11/19 08:06:33;;;;;;;;;8.00;6.75;;;;;11.15;59.29;100585.94;5079897;28;62839;-40
2022/11/19 08:08:58;;;;;;;;;9.50;7.50;;;;;11.15;59.66;100593.78;5081840;27;45253;-40
2022/11/19 08:11:24;;;;;;;;;11.75;7.00;;;;;11.17;59.68;100596.34;5075374;27;45432;-40
2022/11/19 08:13:50;;;;;;;;;8.25;8.25;;;;;11.16;59.39;100599.91;5074780;27;45489;-41
2022/11/19 08:19:08;;;;;;;;;7.25;6.00;;;;;11.17;59.24;100609.44;5079568;28;45458;-41
2022/11/19 08:21:34;;;;;;;;;12.75;7.00;;;;;11.16;59.40;100611.22;5075717;27;45471;-40
2022/11/19 08:23:59;;;;;;;;;9.00;6.00;;;;;11.17;59.24;100618.19;5072186;28;46919;-40
2022/11/19 08:26:25;;;;;;;;;6.50;5.00;;;;;11.16;59.39;100629.56;5065953;28;45420;-40
2022/11/19 08:28:50;;;;;;;;;7.25;7.25;;;;;11.16;59.21;100629.56;5072267;27;65190;-40
2022/11/19 08:31:16;;;;;;;;;7.50;5.50;;;;;11.16;59.45;100628.72;5078805;28;45789;-40
2022/11/19 08:33:41;;;;;;;;;7.75;7.50;;;;;11.14;59.25;100633.16;5074138;28;45635;-41
2022/11/19 08:36:06;;;;;;;;;7.75;6.75;;;;;11.10;59.36;100623.66;5074660;27;51005;-40
2022/11/19 08:38:32;;;;;;;;;8.00;5.50;;;;;11.11;59.63;100641.09;5061977;28;68112;-40
2022/11/19 08:43:41;;;;;;;;;8.50;7.00;;;;;11.13;59.58;100639.28;5066571;27;45900;-41
2022/11/19 08:46:07;;;;;;;;;8.50;7.00;;;;;11.12;59.62;100634.94;5062720;28;69115;-40
2022/11/19 08:48:32;;;;;;;;;9.00;8.00;;;;;11.13;59.41;100636.66;5073147;27;66418;-40
2022/11/19 08:51:01;;;;;;;;;8.50;7.75;;;;;11.16;59.40;100644.44;5080941;27;54731;-39
2022/11/19 08:53:26;;;;;;;;;8.00;7.50;;;;;11.18;59.27;100640.00;5081091;27;45623;-40
2022/11/19 08:55:52;;;;;;;;;11.50;7.50;;;;;11.23;59.60;100648.56;5072463;27;64067;-39
2022/11/19 08:58:17;;;;;;;;;8.25;7.00;;;;;11.26;59.55;100648.47;5080795;27;59014;-40
2022/11/19 09:00:43;;;;;;;;;12.25;6.50;;;;;11.29;59.43;100652.75;5079995;27;73008;-40
2022/11/19 09:03:08;;;;;;;;;10.75;8.25;;;;;11.31;59.37;100649.16;5080045;27;45337;-40
2022/11/19 09:05:33;;;;;;;;;10.00;8.00;;;;;11.36;59.44;100654.28;5080360;27;69399;-40
2022/11/19 09:07:58;;;;;;;;;6.75;6.00;;;;;11.41;59.26;100660.22;5079037;27;69170;-40
2022/11/19 09:10:24;;;;;;;;;10.00;7.25;;;;;11.43;59.29;100658.41;5080210;27;72141;-40
2022/11/19 09:12:50;;;;;;;;;9.00;6.00;;;;;11.47;59.19;100659.16;5080018;27;62413;-40
2022/11/19 09:15:15;;;;;;;;;10.25;6.00;;;;;11.48;58.90;100658.28;5081087;27;45785;-40
2022/11/19 09:17:41;;;;;;;;;7.50;5.75;;;;;11.48;59.03;100661.75;5080069;28;45314;-41
2022/11/19 09:20:07;;;;;;;;;5.00;5.00;;;;;11.50;58.80;100656.47;5096716;27;45439;-42
2022/11/19 09:22:32;;;;;;;;;10.75;8.00;;;;;11.51;59.01;100658.16;5080940;27;46108;-41
2022/11/19 09:24:57;;;;;;;;;9.00;6.75;;;;;11.53;58.98;100654.59;5079974;27;45387;-40
2022/11/19 09:27:23;;;;;;;;;9.75;5.75;;;;;11.56;59.04;100659.75;5080757;27;49137;-40
2022/11/19 09:29:48;;;;;;;;;7.25;7.25;;;;;11.57;58.69;100650.09;5077531;27;65139;-40
2022/11/19 09:32:14;;;;;;;;;8.25;7.75;;;;;11.60;58.57;100660.50;5080186;27;61723;-40
2022/11/19 09:34:40;;;;;;;;;9.50;6.00;;;;;11.62;58.85;100661.31;5081057;27;45375;-40
2022/11/19 09:37:07;;;;;;;;;6.25;5.75;;;;;11.65;58.80;100668.19;5080670;27;45242;-40
2022/11/19 09:39:32;;;;;;;;;8.75;5.25;;;;;11.68;58.78;100668.94;5069880;28;45491;-40
2022/11/19 09:42:13;;;;;;;;;12.50;6.50;;;;;11.69;58.54;100673.31;5078077;27;46256;-40
2022/11/19 09:44:59;;;;;;;;;8.50;7.00;;;;;11.71;58.25;100673.25;5080572;27;45346;-41
2022/11/19 09:47:43;;;;;;;;;10.50;6.00;;;;;11.67;58.10;100677.75;5071007;27;45315;-40
2022/11/19 09:50:13;;;;;;;;;10.75;8.50;;;;;11.68;58.39;100668.09;5078993;27;45272;-40
2022/11/19 09:53:17;;;;;;;;;10.25;8.50;;;;;11.70;58.46;100680.25;5080385;28;46952;-38
2022/11/19 09:55:44;;;;;;;;;12.25;10.00;;;;;11.74;58.64;100679.25;5080422;27;45482;-38
2022/11/19 09:58:22;;;;;;;;;8.25;6.75;;;;;11.76;58.29;100677.44;5077489;28;45720;-39
2022/11/19 10:00:47;;;;;;;;;9.50;8.75;;;;;11.76;58.53;100676.59;5078373;28;45439;-40
2022/11/19 10:03:14;;;;;;;;;12.25;8.25;;;;;11.81;58.32;100676.41;5067713;28;45529;-39
2022/11/19 10:05:43;;;;;;;;;10.50;7.25;;;;;11.83;58.32;100671.97;5069358;28;45736;-40
2022/11/19 10:08:35;;;;;;;;;8.00;7.00;;;;;11.86;58.25;100680.59;5080084;27;45314;-39
2022/11/19 10:11:06;;;;;;;;;13.50;10.00;;;;;11.91;58.43;100685.72;5078853;27;45456;-39
2022/11/19 10:13:46;;;;;;;;;11.25;10.50;;;;;11.96;58.29;100674.19;5080280;27;45612;-40
2022/11/19 10:16:30;;;;;;;;;15.75;10.50;;;;;12.01;57.92;100678.44;5078400;27;45323;-40
2022/11/19 10:19:06;;;;;;;;;10.00;8.00;;;;;12.04;58.34;100675.69;5078988;27;45395;-40
2022/11/19 10:21:40;;;;;;;;;9.25;7.75;;;;;12.06;57.82;100674.72;5078526;28;45284;-40
2022/11/19 10:24:47;;;;;;;;;12.75;9.75;;;;;12.08;58.11;100672.91;5079842;27;46556;-40
2022/11/19 10:27:27;;;;;;;;;11.50;7.75;;;;;12.09;57.83;100668.50;5012464;27;46012;-40
2022/11/19 10:29:54;;;;;;;;;9.00;8.00;;;;;12.12;57.58;100671.88;5078818;28;45441;-40
2022/11/19 10:32:30;;;;;;;;;6.25;5.50;;;;;12.09;57.46;100671.13;5079893;27;45299;-40
2022/11/19 10:34:59;;;;;;;;;13.50;9.75;;;;;12.08;57.89;100672.06;5078675;27;46051;-40
2022/11/19 10:37:30;;;;;;;;;14.25;11.00;;;;;12.09;57.74;100674.63;5068346;27;45482;-40
2022/11/19 10:40:00;;;;;;;;;9.25;6.25;;;;;12.12;57.69;100673.66;5065904;27;45291;-40
2022/11/19 10:42:36;;;;;;;;;15.00;10.25;;;;;12.11;57.77;100675.44;5095643;27;45501;-40
2022/11/19 10:45:23;;;;;;;;;12.00;9.00;;;;;12.10;57.44;100667.63;5077352;28;46398;-40
2022/11/19 10:47:55;;;;;;;;;11.25;9.50;;;;;12.08;57.91;100672.91;5077856;28;45259;-40
2022/11/19 10:50:22;;;;;;;;;13.75;9.50;;;;;12.07;57.91;100668.56;5079637;27;45491;-40
2022/11/19 10:53:12;;;;;;;;;13.50;9.25;;;;;12.06;57.27;100666.03;5078976;27;45755;-40
2022/11/19 10:55:46;;;;;;;;;9.50;9.00;;;;;12.05;57.57;100665.13;5061082;28;45523;-40
2022/11/19 10:58:27;;;;;;;;;11.00;8.75;;;;;12.06;57.80;100666.88;5079127;28;45196;-38
2022/11/19 11:00:55;;;;;;;;;11.75;11.00;;;;;12.10;57.79;100662.38;5079969;27;45304;-40
2022/11/19 11:03:22;;;;;;;;;12.75;11.00;;;;;12.13;57.68;100660.50;5077635;28;45286;-40
2022/11/19 11:06:05;;;;;;;;;13.75;10.00;;;;;12.19;57.52;100666.44;5077393;28;45592;-40
2022/11/19 11:08:30;;;;;;;;;11.00;10.00;;;;;12.21;57.63;100668.09;5067981;27;45462;-40
2022/11/19 11:10:56;;;;;;;;;12.75;10.00;;;;;12.22;57.34;100667.19;5072154;27;45466;-40
2022/11/19 11:16:07;;;;;;;;;11.25;11.25;;;;;12.30;57.75;100664.28;5078936;27;45868;-39
2022/11/19 11:18:34;;;;;;;;;10.50;10.00;;;;;12.34;57.62;100666.75;5091784;27;45280;-40
2022/11/19 11:21:00;;;;;;;;;17.25;11.75;;;;;12.38;57.26;100666.63;5080830;27;45388;-41
2022/11/19 11:23:27;;;;;;;;;12.75;10.75;;;;;12.42;57.13;100658.59;5080507;28;45726;-40
2022/11/19 11:25:59;;;;;;;;;14.50;13.00;;;;;12.48;56.91;100658.41;5080259;28;45421;-40
2022/11/19 11:28:24;;;;;;;;;17.50;13.75;;;;;12.55;57.17;100659.00;5080155;28;45452;-40
2022/11/19 11:30:53;;;;;;;;;12.00;9.25;;;;;12.62;56.75;100662.28;5081339;28;45318;-40
2022/11/19 11:33:24;;;;;;;;;16.25;12.00;;;;;12.65;56.78;100667.41;5082789;27;45269;-39
2022/11/19 11:35:51;;;;;;;;;13.25;12.50;;;;;12.64;57.03;100663.94;5082358;27;46451;-40
2022/11/19 11:38:19;;;;;;;;;10.25;9.75;;;;;12.66;56.73;100662.13;5082336;27;45928;-40
2022/11/19 11:41:01;;;;;;;;;15.00;10.50;;;;;12.66;56.45;100659.50;5064217;27;45337;-39
2022/11/19 11:43:27;;;;;;;;;12.25;11.00;;;;;12.67;57.09;100655.94;5064633;27;45253;-40
2022/11/19 11:45:57;;;;;;;;;15.25;9.75;;;;;12.69;57.00;100654.09;5068077;27;45503;-40
2022/11/19 11:48:22;;;;;;;;;12.25;9.75;;;;;12.69;56.66;100654.09;5076645;27;45378;-40
2022/11/19 11:50:49;;;;;;;;;12.00;9.25;;;;;12.71;56.27;100651.44;5088169;27;47733;-40